KBNO/BNO METAR and TAF weather

Enter ICAO airport designator
Station Type Date Time Source
KBNO METAR 2019/12/09 05:53 UTC NOAA

KBNO 090553Z AUTO 31004KT 10SM OVC031 03/M01 A3014 RMK AO2 SLP217 T00281011 10039 20006 51014


Station Type Date Time Source
KBNO Decoded METAR 2019/12/09 05:53 UTC NOAA

BURNS MUNICIPAL AIRPORT, OR, United States (KBNO) 43-36N 118-57W 1264M
Dec 09, 2019 - 12:53 AM EST / 2019.12.09 0553 UTC
Wind: from the NW (310 degrees) at 5 MPH (4 KT):0
Visibility: 10 mile(s):0
Sky conditions: overcast
Temperature: 37.0 F (2.8 C)
Dew Point: 30.0 F (-1.1 C)
Relative Humidity: 75%
Pressure (altimeter): 30.14 in. Hg (1020 hPa)
Pressure tendency: 0.04 inches (1.4 hPa) higher than three hours ago
ob: KBNO 090553Z AUTO 31004KT 10SM OVC031 03/M01 A3014 RMK AO2 SLP217 T00281011 10039 20006 51014
cycle: 6

Station Type Date Time Source
KBNO TAF 2019/12/09 06:22 UTC NOAA

TAF KBNO 090520Z 0906/1006 33005KT P6SM OVC035
FM091200 VRB03KT P6SM BKN035 BKN200
FM092000 VRB03KT P6SM SKC

Example: see airport list